createdAt,value
2022-12-25T00:00:28.920Z,5.88
2022-12-25T00:03:22.753Z,5.80
2022-12-25T00:06:06.223Z,5.73
2022-12-25T00:08:39.521Z,5.69
2022-12-25T00:11:11.991Z,5.66
2022-12-25T00:13:59.567Z,5.61
2022-12-25T00:16:42.052Z,5.60
2022-12-25T00:19:19.457Z,5.57
2022-12-25T00:21:58.388Z,5.54
2022-12-25T00:24:49.220Z,5.50
2022-12-25T00:27:31.052Z,5.51
2022-12-25T00:30:15.434Z,5.49
2022-12-25T00:32:47.513Z,5.47
2022-12-25T00:35:19.396Z,5.47
2022-12-25T00:37:58.390Z,5.48
2022-12-25T00:40:46.876Z,5.47
2022-12-25T00:43:28.247Z,5.48
2022-12-25T00:45:58.795Z,5.48
2022-12-25T00:48:38.883Z,5.48
2022-12-25T00:51:10.827Z,5.51
2022-12-25T00:53:46.751Z,5.51
2022-12-25T00:56:15.429Z,5.52
2022-12-25T00:58:47.157Z,5.51
2022-12-25T01:01:20.928Z,5.52
2022-12-25T01:04:00.137Z,5.52
2022-12-25T01:06:32.511Z,5.52
2022-12-25T01:09:26.666Z,5.51
2022-12-25T01:12:08.581Z,5.50
2022-12-25T01:14:37.787Z,5.47
2022-12-25T01:17:08.939Z,5.46
2022-12-25T01:19:41.582Z,5.48
2022-12-25T01:22:15.648Z,5.51
2022-12-25T01:24:45.354Z,5.57
2022-12-25T01:27:16.736Z,5.63
2022-12-25T01:29:53.060Z,5.66
2022-12-25T01:32:22.044Z,5.68
2022-12-25T01:34:56.215Z,5.72
2022-12-25T01:37:28.327Z,5.73
2022-12-25T01:40:17.635Z,5.75
2022-12-25T01:42:54.047Z,5.78
2022-12-25T01:45:37.915Z,5.81
2022-12-25T01:48:14.772Z,5.86
2022-12-25T01:50:47.257Z,5.90
2022-12-25T01:53:18.682Z,5.93
2022-12-25T01:55:50.886Z,5.96
2022-12-25T01:58:22.039Z,5.98
2022-12-25T02:00:54.023Z,6.00
2022-12-25T02:03:34.033Z,6.00
2022-12-25T02:06:17.522Z,6.01
2022-12-25T02:08:57.983Z,6.02
2022-12-25T02:11:45.167Z,6.04
2022-12-25T02:14:14.205Z,6.04
2022-12-25T02:17:09.867Z,6.04
2022-12-25T02:20:17.229Z,6.07
2022-12-25T02:23:04.322Z,6.09
2022-12-25T02:25:58.913Z,6.10
2022-12-25T02:28:32.437Z,6.14
2022-12-25T02:31:10.625Z,6.17
2022-12-25T02:34:04.312Z,6.18
2022-12-25T02:36:50.048Z,6.20
2022-12-25T02:40:04.489Z,6.23
2022-12-25T02:43:13.175Z,6.25
2022-12-25T02:46:39.257Z,6.28
2022-12-25T02:49:38.399Z,6.27
2022-12-25T02:52:42.011Z,6.26
2022-12-25T02:55:32.245Z,6.27
2022-12-25T02:58:31.457Z,6.29
2022-12-25T03:01:35.133Z,6.30
2022-12-25T03:04:33.152Z,6.32
2022-12-25T03:07:14.360Z,6.36
2022-12-25T03:10:10.014Z,6.36
2022-12-25T03:12:49.797Z,6.36
2022-12-25T03:15:40.922Z,6.34
2022-12-25T03:18:17.916Z,6.33
2022-12-25T03:21:07.207Z,6.31
2022-12-25T03:24:05.542Z,6.28
2022-12-25T03:26:55.644Z,6.24
2022-12-25T03:41:49.542Z,6.64
2022-12-25T03:44:56.788Z,6.53
2022-12-25T03:47:54.096Z,6.40
2022-12-25T03:50:52.795Z,6.29
2022-12-25T03:54:02.125Z,6.21
2022-12-25T03:57:02.575Z,6.13
2022-12-25T03:59:55.043Z,6.07
2022-12-25T04:02:58.961Z,6.00
2022-12-25T04:05:53.067Z,5.95
2022-12-25T04:08:57.161Z,5.90
2022-12-25T04:12:07.002Z,5.82
2022-12-25T04:15:07.992Z,5.73
2022-12-25T04:17:58.804Z,5.65
2022-12-25T04:20:59.822Z,5.54
2022-12-25T04:23:49.605Z,5.47
2022-12-25T04:26:39.878Z,5.41
2022-12-25T04:29:35.545Z,5.33
2022-12-25T04:32:37.473Z,5.23
2022-12-25T04:35:30.710Z,5.14
2022-12-25T04:38:13.653Z,5.07
2022-12-25T04:40:55.785Z,5.04
2022-12-25T04:43:30.475Z,4.97
2022-12-25T04:46:08.021Z,4.91
2022-12-25T04:48:43.032Z,4.87
2022-12-25T04:51:27.294Z,4.75
2022-12-25T04:54:02.586Z,4.65
2022-12-25T04:56:43.357Z,4.59
2022-12-25T04:59:25.023Z,4.55
2022-12-25T05:02:06.145Z,4.48
2022-12-25T05:04:38.601Z,4.45
2022-12-25T05:07:31.799Z,4.44
2022-12-25T05:10:10.845Z,4.40
2022-12-25T05:12:48.688Z,4.38
2022-12-25T05:15:23.838Z,4.37
2022-12-25T05:18:10.942Z,4.31
2022-12-25T05:20:54.524Z,4.27
2022-12-25T05:23:37.829Z,4.24
2022-12-25T05:26:24.556Z,4.22
2022-12-25T05:29:17.896Z,4.18
2022-12-25T05:32:04.107Z,4.16
2022-12-25T21:54:15.627Z,7.11
2022-12-25T21:57:04.756Z,7.13
2022-12-25T21:59:47.582Z,7.14
2022-12-25T22:02:26.001Z,7.14
2022-12-25T22:05:35.303Z,7.14
2022-12-25T22:08:08.844Z,7.16
2022-12-25T22:10:42.539Z,7.17
2022-12-25T22:13:35.389Z,7.18
2022-12-25T22:16:41.590Z,7.22
2022-12-25T22:19:34.366Z,7.26
2022-12-25T22:22:06.308Z,7.26
2022-12-25T22:24:35.342Z,7.26
2022-12-25T22:27:12.850Z,7.26
2022-12-25T22:29:51.216Z,7.25
2022-12-25T22:32:22.166Z,7.25
2022-12-25T22:35:11.825Z,7.25
2022-12-25T22:37:54.257Z,7.26
2022-12-25T22:40:31.004Z,7.27
2022-12-25T22:43:19.805Z,7.28
2022-12-25T22:46:02.479Z,7.28
2022-12-25T22:48:34.192Z,7.29
2022-12-25T22:51:23.152Z,7.32
2022-12-25T22:54:03.968Z,7.34
2022-12-25T22:56:45.219Z,7.37
2022-12-25T22:59:20.629Z,7.39
2022-12-25T23:02:03.196Z,7.41
2022-12-25T23:04:52.205Z,7.41
2022-12-25T23:07:41.476Z,7.39
2022-12-25T23:10:23.133Z,7.39
2022-12-25T23:13:20.122Z,7.38
2022-12-25T23:16:13.837Z,7.37
2022-12-25T23:19:04.017Z,7.37
2022-12-25T23:22:00.672Z,7.38
2022-12-25T23:25:07.592Z,7.39
2022-12-25T23:27:56.509Z,7.39
2022-12-25T23:30:36.537Z,7.40
2022-12-25T23:33:25.376Z,7.40
2022-12-25T23:36:08.641Z,7.40
2022-12-25T23:38:46.911Z,7.38
2022-12-25T23:41:35.733Z,7.38
2022-12-25T23:44:07.019Z,7.38
2022-12-25T23:46:40.359Z,7.37
2022-12-25T23:49:09.814Z,7.39
2022-12-25T23:51:49.286Z,7.41
2022-12-25T23:54:33.622Z,7.42
2022-12-25T23:57:12.285Z,7.42
2022-12-25T23:59:52.109Z,7.42
